Time;durP1;ratioP1;P1;durP2;ratioP2;P2;SDS_P1;SDS_P2;PMS_P1;PMS_P2;Temp;Humidity;BMP_temperature;BMP_pressure;BME280_temperature;BME280_humidity;BME280_pressure;Samples;Min_cycle;Max_cycle;Signal;HPM_P1;HPM_P2
2022/04/01 00:02:23;;;;;;;11.93;10.77;;;5.10;99.90;;;;;;5052802;28;20025;-56
2022/04/01 00:04:49;;;;;;;12.98;11.55;;;5.20;99.90;;;;;;5052861;28;20025;-56
2022/04/01 00:07:15;;;;;;;13.98;11.73;;;5.20;99.90;;;;;;5051808;28;20021;-57
2022/04/01 00:09:41;;;;;;;16.83;12.50;;;5.20;99.90;;;;;;5052653;28;20079;-57
2022/04/01 00:12:07;;;;;;;13.23;11.93;;;5.20;99.90;;;;;;5052701;28;20433;-56
2022/04/01 00:14:33;;;;;;;13.52;12.13;;;5.20;99.90;;;;;;5052407;28;20037;-57
2022/04/01 00:17:00;;;;;;;13.70;12.32;;;5.20;99.90;;;;;;5052248;28;20036;-56
2022/04/01 00:19:26;;;;;;;13.68;12.38;;;5.20;99.90;;;;;;5051924;28;20032;-56
2022/04/01 00:21:52;;;;;;;13.55;12.27;;;5.20;99.90;;;;;;5052474;28;20394;-56
2022/04/01 00:24:18;;;;;;;13.35;12.05;;;5.10;99.90;;;;;;5052033;28;20411;-57
2022/04/01 00:26:45;;;;;;;18.15;12.38;;;5.10;99.90;;;;;;5051711;28;20068;-56
2022/04/01 00:29:18;;;;;;;13.80;12.32;;;5.10;99.90;;;;;;5051884;28;20029;-56
2022/04/01 00:31:49;;;;;;;14.52;13.07;;;5.00;99.90;;;;;;5051488;28;20021;-56
2022/04/01 00:34:16;;;;;;;14.18;12.77;;;4.80;99.90;;;;;;5051072;28;20121;-56
2022/04/01 00:36:51;;;;;;;15.38;13.82;;;4.80;99.90;;;;;;5051262;28;20479;-57
2022/04/01 00:39:18;;;;;;;17.77;15.88;;;4.80;99.90;;;;;;5052074;28;20025;-56
2022/04/01 00:41:46;;;;;;;18.60;16.60;;;4.80;99.90;;;;;;5052162;28;20032;-56
2022/04/01 00:44:23;;;;;;;18.92;16.73;;;4.80;99.90;;;;;;5051948;28;20027;-57
2022/04/01 00:46:55;;;;;;;20.27;17.30;;;4.80;99.90;;;;;;5052033;28;20052;-57
2022/04/01 00:49:21;;;;;;;19.63;17.25;;;4.80;99.90;;;;;;5051884;28;20061;-57
2022/04/01 00:51:49;;;;;;;23.10;18.23;;;4.80;99.90;;;;;;5051771;28;20036;-56
2022/04/01 00:54:16;;;;;;;17.15;15.32;;;4.80;99.90;;;;;;5051755;28;20041;-57
2022/04/01 00:56:42;;;;;;;18.70;15.45;;;4.70;99.90;;;;;;5052033;28;20036;-57
2022/04/01 00:59:08;;;;;;;14.13;12.73;;;4.60;99.90;;;;;;5052089;28;20028;-57
2022/04/01 01:01:35;;;;;;;12.75;11.45;;;4.50;99.90;;;;;;5051694;28;20032;-57
2022/04/01 01:04:02;;;;;;;13.52;12.13;;;4.50;99.90;;;;;;5051532;28;20112;-56
2022/04/01 01:06:30;;;;;;;11.35;10.25;;;4.50;99.90;;;;;;5051383;28;20410;-57
2022/04/01 01:08:56;;;;;;;11.07;10.07;;;4.50;99.90;;;;;;5051500;28;20031;-57
2022/04/01 01:11:21;;;;;;;10.50;9.50;;;4.30;99.90;;;;;;5050832;28;20025;-56
2022/04/01 01:13:47;;;;;;;10.18;9.18;;;4.20;99.90;;;;;;5051159;28;20116;-57
2022/04/01 01:16:13;;;;;;;10.85;9.40;;;4.30;99.90;;;;;;5051047;28;20104;-56
2022/04/01 01:18:39;;;;;;;10.10;9.10;;;4.30;99.90;;;;;;5050933;28;20563;-56
2022/04/01 01:21:09;;;;;;;9.63;8.63;;;4.20;99.90;;;;;;5050859;28;20025;-56
2022/04/01 01:23:36;;;;;;;8.15;7.35;;;4.20;99.90;;;;;;5050825;28;20418;-56
2022/04/01 01:26:02;;;;;;;7.82;7.00;;;4.10;99.90;;;;;;5050432;28;20078;-58
2022/04/01 01:28:28;;;;;;;7.07;6.38;;;4.00;99.90;;;;;;5050568;28;20433;-56
2022/04/01 01:30:54;;;;;;;6.85;6.18;;;4.00;99.90;;;;;;5065349;28;20064;-56
2022/04/01 01:33:20;;;;;;;7.38;6.68;;;4.00;99.90;;;;;;5050446;28;20044;-56
2022/04/01 01:35:47;;;;;;;6.88;6.25;;;3.90;99.90;;;;;;5051302;28;20031;-55
2022/04/01 01:38:17;;;;;;;6.22;5.63;;;3.80;99.90;;;;;;5051103;28;20075;-55
2022/04/01 01:40:43;;;;;;;6.68;5.97;;;3.80;99.90;;;;;;5050968;28;20052;-55
2022/04/01 01:43:08;;;;;;;6.53;5.90;;;3.80;99.90;;;;;;5050373;28;20025;-55
2022/04/01 01:45:34;;;;;;;6.35;5.68;;;3.60;99.90;;;;;;5050958;28;20025;-56
2022/04/01 01:48:00;;;;;;;7.07;5.95;;;3.60;99.90;;;;;;5050768;28;20037;-55
2022/04/01 01:55:54;;;;;;;5.15;4.75;;;3.40;99.90;;;;;;5051607;28;20052;-56
2022/04/01 01:58:19;;;;;;;5.70;5.20;;;3.40;99.90;;;;;;5067325;28;20052;-56
2022/04/01 02:00:45;;;;;;;6.10;5.50;;;3.40;99.90;;;;;;5049953;28;20371;-56
2022/04/01 02:03:12;;;;;;;5.50;5.00;;;3.40;99.90;;;;;;5050435;28;20104;-55
2022/04/01 02:05:37;;;;;;;6.40;5.50;;;3.40;99.90;;;;;;5050960;28;20017;-56
2022/04/01 02:08:05;;;;;;;6.03;5.45;;;3.30;99.90;;;;;;5050159;28;20532;-56
2022/04/01 02:10:31;;;;;;;6.10;5.50;;;3.30;99.90;;;;;;5050030;28;20029;-57
2022/04/01 02:12:58;;;;;;;6.07;5.47;;;3.30;99.90;;;;;;5050078;28;20017;-56
2022/04/01 02:15:24;;;;;;;5.82;5.30;;;3.40;99.90;;;;;;5049720;28;20021;-56
2022/04/01 02:17:50;;;;;;;5.75;5.15;;;3.40;99.90;;;;;;5049910;28;20028;-56
2022/04/01 02:20:17;;;;;;;5.97;5.45;;;3.40;99.90;;;;;;5050515;28;20017;-55
2022/04/01 02:22:43;;;;;;;5.03;4.55;;;3.30;99.90;;;;;;5050334;28;20122;-55
2022/04/01 02:25:11;;;;;;;5.30;4.80;;;3.30;99.90;;;;;;5050554;28;20029;-56
2022/04/01 02:27:37;;;;;;;5.53;5.00;;;3.20;99.90;;;;;;5050766;28;20027;-56
2022/04/01 02:30:10;;;;;;;5.57;4.85;;;3.20;99.90;;;;;;5050124;28;20076;-56
2022/04/01 02:32:42;;;;;;;;;;;3.20;99.90;;;;;;5051339;28;20029;-57
2022/04/01 02:35:09;;;;;;;4.88;4.18;;;3.20;99.90;;;;;;5050321;28;19909;-57
2022/04/01 02:37:35;;;;;;;5.80;4.30;;;3.20;99.90;;;;;;5048888;28;20030;-57
2022/04/01 02:40:03;;;;;;;8.93;4.47;;;3.20;99.90;;;;;;5050206;28;20512;-57
2022/04/01 02:42:29;;;;;;;5.97;4.18;;;3.30;99.90;;;;;;5050862;28;20021;-57
2022/04/01 02:44:55;;;;;;;5.88;3.80;;;3.20;99.90;;;;;;5054376;28;20446;-57
2022/04/01 02:47:21;;;;;;;4.30;3.90;;;3.20;99.90;;;;;;5053627;28;20032;-57
2022/04/01 02:49:47;;;;;;;5.30;4.03;;;3.20;99.90;;;;;;5054607;28;20037;-57
2022/04/01 02:52:13;;;;;;;4.40;3.45;;;3.10;99.90;;;;;;5054736;28;20052;-57
2022/04/01 02:54:39;;;;;;;4.38;3.65;;;3.20;99.90;;;;;;5053642;28;20041;-57
2022/04/01 02:57:05;;;;;;;4.78;3.80;;;3.10;99.90;;;;;;5053459;28;20700;-57
2022/04/01 02:59:31;;;;;;;3.75;3.35;;;3.10;99.90;;;;;;5053662;28;20025;-58
2022/04/01 03:01:56;;;;;;;5.88;3.72;;;3.20;99.90;;;;;;5053726;28;20078;-56
2022/04/01 03:04:22;;;;;;;5.25;4.55;;;3.20;99.90;;;;;;5053365;28;20033;-57
2022/04/01 03:06:48;;;;;;;6.95;5.50;;;3.20;99.90;;;;;;5053358;28;20323;-56
2022/04/01 03:09:14;;;;;;;7.15;5.97;;;3.10;99.90;;;;;;5053632;28;20033;-55
2022/04/01 03:11:41;;;;;;;8.18;7.38;;;3.10;99.90;;;;;;5053108;28;20033;-56
2022/04/01 03:14:08;;;;;;;9.38;8.20;;;3.10;99.90;;;;;;5054602;28;20490;-56
2022/04/01 03:16:35;;;;;;;6.72;6.03;;;3.00;99.90;;;;;;5054204;28;20071;-56
2022/04/01 03:19:01;;;;;;;7.70;6.90;;;2.90;99.90;;;;;;5052802;28;20490;-56
2022/04/01 03:21:29;;;;;;;9.00;6.72;;;2.90;99.90;;;;;;5054930;28;20021;-56
2022/04/01 03:23:55;;;;;;;7.40;6.70;;;2.90;99.90;;;;;;5054163;28;20033;-56
2022/04/01 03:26:21;;;;;;;7.00;6.30;;;2.80;99.90;;;;;;5052914;28;20021;-56
2022/04/01 03:28:48;;;;;;;7.28;5.65;;;2.80;99.90;;;;;;5053957;28;20028;-56
2022/04/01 03:31:14;;;;;;;7.80;6.28;;;2.80;99.90;;;;;;5053128;28;20021;-56
2022/04/01 03:33:43;;;;;;;6.97;5.80;;;2.90;99.90;;;;;;5052781;28;20359;-56
2022/04/01 03:36:10;;;;;;;5.93;5.32;;;2.80;99.90;;;;;;5053223;28;20025;-56
2022/04/01 03:38:36;;;;;;;7.72;5.78;;;2.90;99.90;;;;;;5053331;28;20390;-56
2022/04/01 03:41:02;;;;;;;5.57;4.97;;;2.80;99.90;;;;;;5053258;28;20021;-56
2022/04/01 03:43:29;;;;;;;4.95;4.47;;;2.80;99.90;;;;;;5068733;28;20032;-57
2022/04/01 03:45:58;;;;;;;5.35;4.85;;;2.80;99.90;;;;;;5052150;28;20059;-56
2022/04/01 03:48:34;;;;;;;6.72;5.22;;;2.80;99.90;;;;;;5052301;28;20041;-56
2022/04/01 03:51:00;;;;;;;5.40;4.90;;;2.80;99.90;;;;;;5053123;28;20506;-57
2022/04/01 03:53:29;;;;;;;6.35;4.93;;;2.80;99.90;;;;;;5052044;28;20108;-56
2022/04/01 03:55:58;;;;;;;5.40;4.90;;;2.80;99.90;;;;;;5053124;28;20479;-57
2022/04/01 03:58:33;;;;;;;6.10;5.60;;;2.80;99.90;;;;;;5052678;28;20394;-56
2022/04/01 04:01:00;;;;;;;8.63;7.72;;;2.70;99.90;;;;;;5052397;28;20384;-56
2022/04/01 04:03:31;;;;;;;9.75;8.75;;;2.70;99.90;;;;;;5052108;28;20025;-56
2022/04/01 04:05:58;;;;;;;11.20;10.10;;;2.80;99.90;;;;;;5051922;28;20048;-57
2022/04/01 04:08:24;;;;;;;13.27;11.82;;;2.70;99.90;;;;;;5051707;28;20032;-57
2022/04/01 04:10:51;;;;;;;13.60;12.18;;;2.70;99.90;;;;;;5051890;28;20549;-57
2022/04/01 04:13:20;;;;;;;14.00;12.50;;;2.60;99.90;;;;;;5050989;28;20017;-56
2022/04/01 04:16:08;;;;;;;15.40;13.23;;;2.60;99.90;;;;;;5067509;28;20025;-56
2022/04/01 04:18:47;;;;;;;13.25;10.93;;;2.60;99.90;;;;;;5052481;28;20017;-56
2022/04/01 04:21:24;;;;;;;14.18;11.77;;;2.60;99.90;;;;;;5052407;28;20315;-56
2022/04/01 04:23:54;;;;;;;13.13;11.15;;;2.60;99.90;;;;;;5051930;28;20116;-56
2022/04/01 04:26:29;;;;;;;13.13;10.32;;;2.50;99.90;;;;;;5051845;28;20025;-56
2022/04/01 04:29:11;;;;;;;14.35;11.13;;;2.40;99.90;;;;;;5051997;28;20128;-56
2022/04/01 04:31:42;;;;;;;13.93;10.52;;;2.40;99.90;;;;;;5052384;28;20387;-56
2022/04/01 04:34:11;;;;;;;13.05;10.77;;;2.50;99.90;;;;;;5051579;28;20029;-56
2022/04/01 04:36:41;;;;;;;11.95;9.57;;;2.40;99.90;;;;;;5051760;28;20098;-56
2022/04/01 04:39:14;;;;;;;12.25;9.85;;;2.50;99.90;;;;;;5051958;28;20283;-56
2022/04/01 04:41:41;;;;;;;9.63;8.63;;;2.50;99.90;;;;;;5051525;28;20021;-58
2022/04/01 04:44:09;;;;;;;12.30;9.82;;;2.50;99.90;;;;;;5051749;28;20485;-56
2022/04/01 04:46:36;;;;;;;12.05;10.05;;;2.50;99.90;;;;;;5051966;28;20068;-56
2022/04/01 04:49:03;;;;;;;13.00;9.30;;;2.40;99.90;;;;;;5051512;28;20566;-56
2022/04/01 04:51:28;;;;;;;10.00;9.00;;;2.20;99.90;;;;;;5051632;28;20051;-57
2022/04/01 04:53:57;;;;;;;10.13;8.23;;;2.20;99.90;;;;;;5051120;28;20025;-56
2022/04/01 04:56:25;;;;;;;10.15;8.52;;;2.20;99.90;;;;;;5051748;28;20075;-57
2022/04/01 04:58:54;;;;;;;10.82;8.65;;;2.20;99.90;;;;;;5051782;28;20023;-57
2022/04/01 05:01:41;;;;;;;13.23;9.60;;;2.10;99.90;;;;;;5052593;28;20484;-57
2022/04/01 05:04:39;;;;;;;13.20;9.85;;;2.10;99.90;;;;;;5051452;28;20028;-57
2022/04/01 05:07:29;;;;;;;11.25;9.75;;;2.10;99.90;;;;;;5014802;28;20037;-57
2022/04/01 05:10:12;;;;;;;10.88;9.50;;;2.00;99.90;;;;;;5051034;28;20037;-57
2022/04/01 05:13:09;;;;;;;12.13;10.80;;;2.00;99.90;;;;;;5051717;28;20096;-57
2022/04/01 05:15:37;;;;;;;13.65;11.60;;;2.00;99.90;;;;;;5051962;28;20033;-58
2022/04/01 05:18:12;;;;;;;15.07;13.40;;;1.90;99.90;;;;;;5051443;28;20024;-58
2022/04/01 05:20:43;;;;;;;15.63;13.45;;;1.80;99.90;;;;;;5051432;28;20033;-58
2022/04/01 05:23:17;;;;;;;16.73;15.02;;;1.90;99.90;;;;;;5066681;28;20025;-59
2022/04/01 05:25:54;;;;;;;18.67;16.50;;;1.80;99.90;;;;;;5050603;28;20083;-58
2022/04/01 05:28:29;;;;;;;19.25;14.65;;;1.90;99.90;;;;;;5050926;28;20380;-59
2022/04/01 05:31:04;;;;;;;21.60;18.92;;;1.80;99.90;;;;;;5066025;28;20021;-59
2022/04/01 05:33:50;;;;;;;23.15;19.38;;;1.70;99.90;;;;;;5050789;28;20102;-59
2022/04/01 05:36:17;;;;;;;22.33;18.15;;;1.70;99.90;;;;;;5051178;28;20025;-59
2022/04/01 05:38:43;;;;;;;24.17;18.90;;;1.60;99.90;;;;;;5050959;28;20095;-59
2022/04/01 05:41:10;;;;;;;27.02;19.20;;;1.70;99.90;;;;;;5050813;28;20104;-59
2022/04/01 05:43:38;;;;;;;21.90;17.38;;;1.60;99.90;;;;;;5051158;28;20013;-59
2022/04/01 05:46:04;;;;;;;20.70;17.25;;;1.60;99.90;;;;;;5051123;28;20482;-59
2022/04/01 05:48:34;;;;;;;23.85;18.20;;;1.50;99.90;;;;;;5051157;28;20059;-59
2022/04/01 05:51:04;;;;;;;28.70;21.80;;;1.50;99.90;;;;;;5051771;28;20021;-64
2022/04/01 05:53:32;;;;;;;24.75;19.27;;;1.50;99.90;;;;;;5051381;28;20403;-59
2022/04/01 05:55:59;;;;;;;25.48;20.15;;;1.50;99.90;;;;;;5051370;28;20025;-59
2022/04/01 05:58:26;;;;;;;23.40;19.30;;;1.50;99.90;;;;;;5051960;28;20021;-60
2022/04/01 06:01:04;;;;;;;25.50;20.92;;;1.50;99.90;;;;;;5051629;28;20104;-60
2022/04/01 06:04:11;;;;;;;24.98;20.10;;;1.50;99.90;;;;;;5051750;28;20021;-60
2022/04/01 06:06:42;;;;;;;25.38;19.58;;;1.50;99.90;;;;;;5050592;28;20028;-60
2022/04/01 06:09:32;;;;;;;27.88;22.85;;;1.50;99.90;;;;;;5067081;28;20092;-60
2022/04/01 06:12:06;;;;;;;30.10;22.75;;;1.50;99.90;;;;;;5050736;28;20075;-60
2022/04/01 06:15:06;;;;;;;25.83;19.73;;;1.50;99.90;;;;;;5049617;28;20095;-59
2022/04/01 06:17:42;;;;;;;22.77;17.75;;;1.40;99.90;;;;;;5051451;28;20021;-59
2022/04/01 06:20:08;;;;;;;21.75;18.45;;;1.40;99.90;;;;;;5055055;28;20405;-59
2022/04/01 06:22:47;;;;;;;21.83;18.10;;;1.40;99.90;;;;;;5054030;28;20013;-60
2022/04/01 06:25:16;;;;;;;20.85;17.83;;;1.40;99.90;;;;;;5053985;28;20084;-60
2022/04/01 06:27:47;;;;;;;21.25;17.50;;;1.40;99.90;;;;;;5055010;28;20037;-60
2022/04/01 06:30:17;;;;;;;23.42;17.35;;;1.40;99.90;;;;;;5055576;28;20398;-60
2022/04/01 06:32:56;;;;;;;21.00;16.63;;;1.40;99.90;;;;;;5054685;28;20025;-58
2022/04/01 06:35:35;;;;;;;18.13;14.57;;;1.50;99.90;;;;;;5052900;28;20036;-58
2022/04/01 06:38:06;;;;;;;18.77;15.13;;;1.40;99.90;;;;;;5054678;28;20036;-59
2022/04/01 06:40:40;;;;;;;14.90;13.15;;;1.40;99.90;;;;;;5052438;28;20478;-58
2022/04/01 06:43:06;;;;;;;17.92;14.48;;;1.40;99.90;;;;;;5054075;28;20023;-58
2022/04/01 06:45:32;;;;;;;15.95;12.90;;;1.40;99.90;;;;;;5054176;28;20029;-57
2022/04/01 06:47:57;;;;;;;17.30;13.30;;;1.50;99.90;;;;;;5054196;28;20047;-58
2022/04/01 06:50:23;;;;;;;16.35;13.00;;;1.50;99.90;;;;;;5054378;28;20104;-58
2022/04/01 06:52:49;;;;;;;17.95;12.65;;;1.50;99.90;;;;;;5054497;28;20386;-57
2022/04/01 06:55:15;;;;;;;16.45;13.38;;;1.50;99.90;;;;;;5056002;28;20089;-57
2022/04/01 06:57:41;;;;;;;18.90;13.25;;;1.50;99.90;;;;;;5058467;28;20021;-57
2022/04/01 07:00:11;;;;;;;16.70;11.27;;;1.50;99.90;;;;;;5057748;28;20028;-57
2022/04/01 07:02:37;;;;;;;15.43;11.40;;;1.40;99.90;;;;;;5054108;28;20024;-57
2022/04/01 07:05:03;;;;;;;16.45;13.05;;;1.30;99.90;;;;;;5053581;28;20044;-56
2022/04/01 07:07:29;;;;;;;17.95;13.20;;;1.30;99.90;;;;;;5053563;28;20477;-58
2022/04/01 07:09:55;;;;;;;18.45;13.48;;;1.30;99.90;;;;;;5053565;28;20024;-57
2022/04/01 07:12:21;;;;;;;19.80;13.27;;;1.30;99.90;;;;;;5052838;28;20055;-57
2022/04/01 07:14:47;;;;;;;15.52;12.25;;;1.30;99.90;;;;;;5053896;28;20028;-57
2022/04/01 07:17:13;;;;;;;17.50;13.52;;;1.30;99.90;;;;;;5053519;28;20028;-57
2022/04/01 07:19:38;;;;;;;18.13;13.38;;;1.40;99.90;;;;;;5054610;28;20390;-56
2022/04/01 07:22:06;;;;;;;16.13;12.48;;;1.40;99.90;;;;;;5054881;28;20159;-58
2022/04/01 07:24:32;;;;;;;15.52;12.13;;;1.40;99.90;;;;;;5052317;28;20028;-58
2022/04/01 07:26:58;;;;;;;13.70;11.32;;;1.50;99.90;;;;;;5053855;28;20043;-58
2022/04/01 07:29:24;;;;;;;14.15;10.25;;;1.50;99.90;;;;;;5053711;28;20029;-58
2022/04/01 07:34:41;;;;;;;19.50;12.25;;;1.50;99.90;;;;;;5053266;28;20032;-64
2022/04/01 07:37:08;;;;;;;16.23;11.05;;;1.50;99.90;;;;;;5053017;28;20045;-64
2022/04/01 07:39:34;;;;;;;16.45;12.02;;;1.50;99.90;;;;;;5053322;28;20498;-63
2022/04/01 07:42:00;;;;;;;14.05;11.88;;;1.50;99.90;;;;;;5054824;28;20108;-63
2022/04/01 07:44:26;;;;;;;14.90;10.82;;;1.50;99.90;;;;;;5053075;28;20036;-64
2022/04/01 07:46:52;;;;;;;15.07;10.45;;;1.60;99.90;;;;;;5053110;28;20107;-64
2022/04/01 07:49:18;;;;;;;14.73;9.82;;;1.60;99.90;;;;;;5052252;28;20049;-64
2022/04/01 07:51:44;;;;;;;13.60;8.98;;;1.60;99.90;;;;;;5054045;28;20029;-63
2022/04/01 07:54:14;;;;;;;11.30;9.40;;;1.60;99.90;;;;;;5069836;28;20025;-64
2022/04/01 07:56:40;;;;;;;14.48;10.40;;;1.60;99.90;;;;;;5052743;28;20048;-63
2022/04/01 07:59:08;;;;;;;12.38;8.52;;;1.70;99.90;;;;;;5067798;28;20021;-63
2022/04/01 08:01:35;;;;;;;12.00;9.27;;;1.70;99.90;;;;;;5051811;28;20497;-64
2022/04/01 08:04:01;;;;;;;13.63;9.93;;;1.70;99.90;;;;;;5053240;28;20021;-63
2022/04/01 08:06:27;;;;;;;14.15;8.82;;;1.60;99.90;;;;;;5067861;28;20029;-63
2022/04/01 08:08:55;;;;;;;13.65;9.40;;;1.70;99.90;;;;;;5052461;28;20027;-63
2022/04/01 08:11:30;;;;;;;12.43;9.95;;;1.70;99.90;;;;;;5052257;28;20021;-63
2022/04/01 08:13:56;;;;;;;17.27;10.93;;;1.70;99.90;;;;;;5052889;28;20043;-63
2022/04/01 08:16:22;;;;;;;12.13;9.75;;;1.70;99.90;;;;;;5067985;28;20025;-64
2022/04/01 08:18:49;;;;;;;13.63;10.43;;;1.70;99.90;;;;;;5052082;28;20119;-63
2022/04/01 08:21:15;;;;;;;13.73;9.88;;;1.70;99.90;;;;;;5053495;28;20021;-63
2022/04/01 08:23:41;;;;;;;14.18;10.63;;;1.80;99.90;;;;;;5053236;28;20017;-63
2022/04/01 08:26:07;;;;;;;12.55;10.45;;;1.90;99.90;;;;;;5052565;28;20025;-63
2022/04/01 08:28:35;;;;;;;16.38;10.43;;;1.90;99.90;;;;;;5053096;28;20037;-63
2022/04/01 08:31:01;;;;;;;12.65;9.55;;;1.90;99.90;;;;;;5068368;28;20440;-63
2022/04/01 08:33:27;;;;;;;14.02;9.88;;;1.90;99.90;;;;;;5053014;28;20021;-63
2022/04/01 08:35:53;;;;;;;10.95;9.70;;;1.90;99.90;;;;;;5052711;28;20051;-64
2022/04/01 08:38:18;;;;;;;11.60;9.30;;;1.90;99.90;;;;;;5051585;28;20474;-64
2022/04/01 08:40:44;;;;;;;12.35;10.25;;;1.90;99.90;;;;;;5051177;28;20017;-63
2022/04/01 08:43:11;;;;;;;11.98;9.10;;;1.90;99.90;;;;;;5067199;28;20072;-64
2022/04/01 08:45:37;;;;;;;10.93;9.65;;;2.00;99.90;;;;;;5052321;28;20029;-63
2022/04/01 08:48:12;;;;;;;11.13;9.32;;;2.00;99.90;;;;;;5051702;28;20049;-63
2022/04/01 08:50:41;;;;;;;12.18;8.85;;;2.10;99.90;;;;;;5052193;28;20460;-64
2022/04/01 08:53:07;;;;;;;11.95;8.68;;;2.20;99.90;;;;;;5052302;28;20548;-63
2022/04/01 08:55:33;;;;;;;12.73;9.80;;;2.20;99.90;;;;;;5067289;28;20053;-64
2022/04/01 08:57:58;;;;;;;13.02;8.73;;;2.20;99.90;;;;;;5051597;28;20029;-64
2022/04/01 09:00:24;;;;;;;11.70;8.98;;;2.20;99.90;;;;;;5052479;28;20021;-64
2022/04/01 09:03:02;;;;;;;8.57;7.53;;;2.20;99.90;;;;;;5051743;28;20052;-64
2022/04/01 09:05:28;;;;;;;12.48;7.68;;;2.30;99.90;;;;;;5051777;28;20433;-65
2022/04/01 09:08:04;;;;;;;10.15;7.97;;;2.50;99.90;;;;;;5052104;28;20053;-65
2022/04/01 09:10:30;;;;;;;13.80;8.38;;;2.50;99.90;;;;;;5052139;28;20057;-65
2022/04/01 09:12:56;;;;;;;12.68;8.80;;;2.60;99.90;;;;;;5051856;28;20525;-65
2022/04/01 09:15:22;;;;;;;9.15;7.43;;;2.60;99.90;;;;;;5051235;28;20060;-65
2022/04/01 09:17:49;;;;;;;9.27;7.45;;;2.70;99.90;;;;;;5052342;28;20096;-65
2022/04/01 09:20:15;;;;;;;11.60;8.05;;;2.70;99.90;;;;;;5069290;28;20124;-65
2022/04/01 09:22:43;;;;;;;12.55;8.32;;;2.70;99.90;;;;;;5072297;28;20063;-64
2022/04/01 09:25:14;;;;;;;9.45;7.78;;;2.70;99.90;;;;;;5069037;28;20025;-64
2022/04/01 09:27:53;;;;;;;9.27;7.22;;;2.90;99.90;;;;;;5051569;28;20425;-63
2022/04/01 09:30:26;;;;;;;11.15;7.72;;;3.00;99.90;;;;;;5066877;28;20021;-63
2022/04/01 09:32:55;;;;;;;8.77;7.57;;;3.00;99.90;;;;;;5050613;28;20075;-62
2022/04/01 09:35:24;;;;;;;8.85;6.53;;;3.10;99.90;;;;;;5051105;28;20072;-61
2022/04/01 09:38:04;;;;;;;7.93;7.10;;;3.10;99.90;;;;;;5051304;28;20013;-61
2022/04/01 09:40:31;;;;;;;9.15;7.15;;;3.20;99.90;;;;;;5067297;28;20246;-61
2022/04/01 09:42:58;;;;;;;10.40;7.10;;;3.20;99.90;;;;;;5051078;28;20104;-61
2022/04/01 09:45:28;;;;;;;10.85;6.95;;;3.20;99.90;;;;;;5050870;28;20079;-61
2022/04/01 09:48:20;;;;;;;9.25;7.38;;;3.10;99.90;;;;;;5050635;28;20078;-60
2022/04/01 09:50:59;;;;;;;9.05;6.78;;;3.10;99.90;;;;;;5047074;28;20131;-60
2022/04/01 09:53:25;;;;;;;7.78;5.78;;;3.20;99.90;;;;;;5054719;28;20017;-60
2022/04/01 09:55:52;;;;;;;9.75;6.03;;;3.20;99.90;;;;;;5056516;28;20029;-60
2022/04/01 09:58:20;;;;;;;9.50;6.97;;;3.20;99.90;;;;;;5072996;28;20021;-60
2022/04/01 10:00:46;;;;;;;10.48;6.93;;;3.20;99.90;;;;;;5055670;28;20427;-61
2022/04/01 10:03:14;;;;;;;8.10;6.55;;;3.10;99.90;;;;;;5057766;28;20563;-60
2022/04/01 10:05:40;;;;;;;12.07;7.72;;;3.00;99.90;;;;;;5057770;28;20381;-59
2022/04/01 10:08:08;;;;;;;7.85;6.72;;;3.00;99.90;;;;;;5054578;28;20143;-59
2022/04/01 10:10:36;;;;;;;9.93;6.93;;;3.00;99.90;;;;;;5055628;28;20099;-60
2022/04/01 10:13:32;;;;;;;9.13;6.38;;;3.10;99.90;;;;;;5056636;28;20114;-60
2022/04/01 10:15:59;;;;;;;7.60;5.82;;;3.10;99.90;;;;;;5054764;28;20036;-59
2022/04/01 10:18:27;;;;;;;9.10;6.30;;;3.10;99.90;;;;;;5055874;28;20023;-59
2022/04/01 10:20:54;;;;;;;9.27;6.38;;;3.10;99.90;;;;;;5054506;28;20025;-58
2022/04/01 10:23:21;;;;;;;8.27;6.22;;;3.10;99.90;;;;;;5072218;28;20029;-61
2022/04/01 10:26:08;;;;;;;7.78;5.95;;;3.10;99.90;;;;;;5072340;28;20490;-59
2022/04/01 10:28:34;;;;;;;9.18;6.80;;;3.00;99.90;;;;;;5058316;28;20555;-59
2022/04/01 10:31:02;;;;;;;6.93;6.18;;;2.90;99.90;;;;;;5056314;28;20017;-58
2022/04/01 10:33:35;;;;;;;8.57;6.63;;;2.90;99.90;;;;;;5054135;28;20543;-58
2022/04/01 10:36:15;;;;;;;7.70;6.13;;;2.90;99.90;;;;;;5054140;28;20017;-59
2022/04/01 10:38:40;;;;;;;6.22;5.63;;;3.00;99.90;;;;;;5054480;28;20070;-59
2022/04/01 10:41:12;;;;;;;9.02;5.93;;;3.00;99.90;;;;;;5054415;28;20029;-59
2022/04/01 10:43:43;;;;;;;8.40;4.50;;;3.10;99.90;;;;;;5053924;28;20100;-59
2022/04/01 10:46:10;;;;;;;6.65;4.75;;;3.20;99.90;;;;;;5069069;28;20620;-59
2022/04/01 10:51:37;;;;;;;7.10;4.30;;;3.40;99.90;;;;;;5053826;28;20032;-58
2022/04/01 10:54:12;;;;;;;;;;;3.60;99.90;;;;;;5054128;28;20072;-58
2022/04/01 10:57:05;;;;;;;5.63;3.95;;;3.60;99.90;;;;;;5053504;28;20366;-58
2022/04/01 10:59:50;;;;;;;6.07;4.00;;;3.90;99.90;;;;;;5043443;28;20048;-58
2022/04/01 11:02:23;;;;;;;7.40;3.05;;;4.10;99.90;;;;;;5053090;28;20025;-58
2022/04/01 11:04:53;;;;;;;3.45;3.15;;;4.30;99.90;;;;;;5052932;28;20565;-58
2022/04/01 11:07:22;;;;;;;5.47;2.80;;;4.60;99.90;;;;;;5051860;28;20526;-58
2022/04/01 11:09:56;;;;;;;5.05;2.63;;;4.70;99.90;;;;;;5053630;28;20017;-58
2022/04/01 11:12:32;;;;;;;5.45;3.10;;;4.70;99.90;;;;;;5054244;28;20020;-58
2022/04/01 11:15:07;;;;;;;4.38;3.50;;;4.60;99.90;;;;;;5068965;28;20024;-58
2022/04/01 11:17:35;;;;;;;4.30;2.88;;;4.50;99.90;;;;;;5052360;28;20474;-58
2022/04/01 11:20:19;;;;;;;5.18;3.28;;;4.50;99.90;;;;;;5052999;28;20055;-58
2022/04/01 11:22:56;;;;;;;6.88;2.97;;;4.60;99.90;;;;;;5051972;28;20059;-58
2022/04/01 11:25:22;;;;;;;7.35;4.70;;;4.70;99.90;;;;;;5053526;28;20104;-59
2022/04/01 11:28:03;;;;;;;7.00;3.13;;;4.80;99.90;;;;;;5053814;28;20542;-58
2022/04/01 11:30:41;;;;;;;5.57;3.38;;;4.80;99.90;;;;;;5052867;28;20025;-58
2022/04/01 11:33:10;;;;;;;5.35;2.90;;;4.70;99.90;;;;;;5052776;28;20041;-58
2022/04/01 11:35:39;;;;;;;4.22;3.38;;;4.60;99.90;;;;;;5053321;28;20075;-58
2022/04/01 11:38:07;;;;;;;6.68;3.65;;;4.60;99.90;;;;;;5054582;28;20048;-58
2022/04/01 11:40:36;;;;;;;8.82;3.70;;;4.70;99.90;;;;;;5053437;28;20150;-58
2022/04/01 11:43:03;;;;;;;7.15;3.90;;;4.80;99.90;;;;;;5053385;28;20033;-58
2022/04/01 11:45:31;;;;;;;5.43;3.58;;;4.90;99.90;;;;;;5068447;28;20025;-58
2022/04/01 11:47:57;;;;;;;4.00;3.03;;;4.90;99.90;;;;;;5052370;28;20048;-58
2022/04/01 11:50:24;;;;;;;9.20;3.78;;;4.60;99.90;;;;;;5053173;28;20347;-58
2022/04/01 11:52:53;;;;;;;5.40;3.70;;;4.60;99.90;;;;;;5052643;28;20027;-58
2022/04/01 11:55:21;;;;;;;6.40;3.33;;;4.50;99.90;;;;;;5053208;28;20035;-58
2022/04/01 11:57:48;;;;;;;7.60;3.80;;;4.30;99.90;;;;;;5052086;28;20485;-58
2022/04/01 12:00:24;;;;;;;6.47;3.92;;;4.10;99.90;;;;;;5067699;28;20021;-58
2022/04/01 12:02:51;;;;;;;7.60;3.35;;;4.20;99.90;;;;;;5053142;28;20018;-58
2022/04/01 12:05:18;;;;;;;5.30;3.50;;;4.20;99.90;;;;;;5053017;28;20086;-58
2022/04/01 12:10:37;;;;;;;8.32;4.13;;;4.00;99.90;;;;;;5052461;28;20151;-58
2022/04/01 12:13:09;;;;;;;3.83;2.92;;;4.00;99.90;;;;;;5052426;28;20051;-58
2022/04/01 12:15:42;;;;;;;6.07;3.22;;;4.00;99.90;;;;;;5053627;28;20078;-58
2022/04/01 12:18:08;;;;;;;;;;;4.10;99.90;;;;;;5054161;28;20033;-58
2022/04/01 12:20:41;;;;;;;7.15;3.22;;;4.20;99.90;;;;;;5052475;28;20457;-58
2022/04/01 12:23:07;;;;;;;3.35;3.00;;;4.20;99.90;;;;;;5052411;28;20021;-57
2022/04/01 12:25:37;;;;;;;5.00;3.50;;;4.30;99.90;;;;;;5052875;28;20029;-58
2022/04/01 12:28:07;;;;;;;7.60;3.53;;;4.50;99.90;;;;;;5067334;28;20025;-58
2022/04/01 12:30:36;;;;;;;10.88;3.85;;;4.80;99.90;;;;;;5052015;28;20025;-57
2022/04/01 12:33:24;;;;;;;9.27;3.80;;;4.90;99.90;;;;;;5051858;28;20494;-59
2022/04/01 12:35:59;;;;;;;6.03;3.20;;;4.70;99.90;;;;;;5051752;28;20412;-58
2022/04/01 12:38:27;;;;;;;5.90;3.08;;;4.60;99.90;;;;;;5053483;28;20075;-58
2022/04/01 12:41:17;;;;;;;6.28;2.95;;;4.40;99.90;;;;;;5052863;28;20025;-57
2022/04/01 12:43:49;;;;;;;5.22;2.78;;;4.30;99.90;;;;;;5040954;28;20044;-58
2022/04/01 12:46:36;;;;;;;4.38;2.70;;;4.30;99.90;;;;;;5052200;28;20021;-58
2022/04/01 12:49:13;;;;;;;5.90;2.90;;;4.20;99.90;;;;;;5051551;28;20114;-57
2022/04/01 12:51:47;;;;;;;3.80;2.97;;;4.30;99.90;;;;;;5051180;28;20097;-57
2022/04/01 12:54:36;;;;;;;7.60;3.20;;;4.40;99.90;;;;;;5051320;28;20482;-57
2022/04/01 12:57:07;;;;;;;6.68;3.65;;;4.60;99.90;;;;;;5051651;28;20017;-58
2022/04/01 12:59:38;;;;;;;6.50;3.42;;;4.60;99.90;;;;;;5051741;28;20017;-58
2022/04/01 13:02:12;;;;;;;5.78;3.40;;;4.80;99.90;;;;;;5051698;28;20029;-58
2022/04/01 13:04:39;;;;;;;4.30;2.67;;;5.10;99.90;;;;;;5051132;28;20036;-57
2022/04/01 13:07:06;;;;;;;6.38;2.55;;;5.20;99.90;;;;;;5050735;28;20069;-57
2022/04/01 13:09:32;;;;;;;5.10;2.58;;;5.10;99.90;;;;;;5051103;28;20021;-57
2022/04/01 13:11:58;;;;;;;7.82;3.28;;;5.00;99.90;;;;;;5051142;28;20032;-57
2022/04/01 13:14:29;;;;;;;7.00;3.08;;;5.20;99.90;;;;;;5050622;28;20029;-58
2022/04/01 13:16:57;;;;;;;6.30;3.17;;;5.20;99.90;;;;;;5050736;28;20036;-57